sensor_id;sensor_type;location;lat;lon;timestamp;temperature;humidity
35541;DHT22;21650;48.840;9.162;2022-07-17T00:00:42;18.20;82.20
35541;DHT22;21650;48.840;9.162;2022-07-17T00:03:09;18.30;82.80
35541;DHT22;21650;48.840;9.162;2022-07-17T00:05:35;18.30;83.70
35541;DHT22;21650;48.840;9.162;2022-07-17T00:08:00;18.40;83.10
35541;DHT22;21650;48.840;9.162;2022-07-17T00:10:26;18.40;82.20
35541;DHT22;21650;48.840;9.162;2022-07-17T00:12:52;18.40;83.10
35541;DHT22;21650;48.840;9.162;2022-07-17T00:15:18;18.40;82.80
35541;DHT22;21650;48.840;9.162;2022-07-17T00:17:44;18.40;82.50
35541;DHT22;21650;48.840;9.162;2022-07-17T00:20:10;18.20;82.30
35541;DHT22;21650;48.840;9.162;2022-07-17T00:22:36;18.00;83.90
35541;DHT22;21650;48.840;9.162;2022-07-17T00:25:02;18.00;84.70
35541;DHT22;21650;48.840;9.162;2022-07-17T00:27:28;18.10;85.40
35541;DHT22;21650;48.840;9.162;2022-07-17T00:29:54;18.20;85.80
35541;DHT22;21650;48.840;9.162;2022-07-17T00:32:19;18.10;86.40
35541;DHT22;21650;48.840;9.162;2022-07-17T00:34:45;18.10;86.50
35541;DHT22;21650;48.840;9.162;2022-07-17T00:37:10;18.00;86.20
35541;DHT22;21650;48.840;9.162;2022-07-17T00:39:36;18.00;85.50
35541;DHT22;21650;48.840;9.162;2022-07-17T00:42:02;17.90;86.40
35541;DHT22;21650;48.840;9.162;2022-07-17T00:44:27;17.90;87.10
35541;DHT22;21650;48.840;9.162;2022-07-17T00:46:53;18.00;86.40
35541;DHT22;21650;48.840;9.162;2022-07-17T00:49:19;18.00;87.60
35541;DHT22;21650;48.840;9.162;2022-07-17T00:51:44;17.90;86.50
35541;DHT22;21650;48.840;9.162;2022-07-17T00:54:11;17.70;86.50
35541;DHT22;21650;48.840;9.162;2022-07-17T00:56:37;17.60;87.80
35541;DHT22;21650;48.840;9.162;2022-07-17T00:59:06;17.50;87.80
35541;DHT22;21650;48.840;9.162;2022-07-17T01:01:32;17.70;89.00
35541;DHT22;21650;48.840;9.162;2022-07-17T01:03:58;17.80;88.10
35541;DHT22;21650;48.840;9.162;2022-07-17T01:06:24;17.70;87.90
35541;DHT22;21650;48.840;9.162;2022-07-17T01:08:49;17.70;88.30
35541;DHT22;21650;48.840;9.162;2022-07-17T01:11:15;17.70;89.70
35541;DHT22;21650;48.840;9.162;2022-07-17T01:13:40;17.60;89.00
35541;DHT22;21650;48.840;9.162;2022-07-17T01:16:07;17.60;90.00
35541;DHT22;21650;48.840;9.162;2022-07-17T01:18:33;17.60;90.80
35541;DHT22;21650;48.840;9.162;2022-07-17T01:21:06;17.60;90.10
35541;DHT22;21650;48.840;9.162;2022-07-17T01:23:32;17.60;90.60
35541;DHT22;21650;48.840;9.162;2022-07-17T01:25:58;17.40;91.50
35541;DHT22;21650;48.840;9.162;2022-07-17T01:28:23;17.50;91.60
35541;DHT22;21650;48.840;9.162;2022-07-17T01:30:50;17.40;91.10
35541;DHT22;21650;48.840;9.162;2022-07-17T01:33:16;17.40;90.80
35541;DHT22;21650;48.840;9.162;2022-07-17T01:35:42;17.20;91.10
35541;DHT22;21650;48.840;9.162;2022-07-17T01:38:08;17.20;91.60
35541;DHT22;21650;48.840;9.162;2022-07-17T01:40:34;17.20;91.60
35541;DHT22;21650;48.840;9.162;2022-07-17T01:42:59;17.30;91.70
35541;DHT22;21650;48.840;9.162;2022-07-17T01:45:25;17.10;91.50
35541;DHT22;21650;48.840;9.162;2022-07-17T01:47:51;17.10;91.40
35541;DHT22;21650;48.840;9.162;2022-07-17T01:50:16;16.80;91.70
35541;DHT22;21650;48.840;9.162;2022-07-17T01:52:44;16.70;92.10
35541;DHT22;21650;48.840;9.162;2022-07-17T01:55:12;16.70;92.80
35541;DHT22;21650;48.840;9.162;2022-07-17T01:57:38;16.90;92.40
35541;DHT22;21650;48.840;9.162;2022-07-17T02:00:06;16.90;92.50
35541;DHT22;21650;48.840;9.162;2022-07-17T02:02:32;16.80;92.40
35541;DHT22;21650;48.840;9.162;2022-07-17T02:04:58;16.80;92.60
35541;DHT22;21650;48.840;9.162;2022-07-17T02:07:23;16.80;92.60
35541;DHT22;21650;48.840;9.162;2022-07-17T02:09:50;16.80;93.00
35541;DHT22;21650;48.840;9.162;2022-07-17T02:12:15;16.90;93.50
35541;DHT22;21650;48.840;9.162;2022-07-17T02:14:41;16.90;93.80
35541;DHT22;21650;48.840;9.162;2022-07-17T02:17:06;16.80;93.50
35541;DHT22;21650;48.840;9.162;2022-07-17T02:19:32;16.90;93.30
35541;DHT22;21650;48.840;9.162;2022-07-17T02:21:58;17.00;93.60
35541;DHT22;21650;48.840;9.162;2022-07-17T02:24:23;17.00;93.20
35541;DHT22;21650;48.840;9.162;2022-07-17T02:26:49;16.90;94.00
35541;DHT22;21650;48.840;9.162;2022-07-17T02:29:14;16.80;93.10
35541;DHT22;21650;48.840;9.162;2022-07-17T02:31:40;16.80;93.70
35541;DHT22;21650;48.840;9.162;2022-07-17T02:34:05;16.80;93.40
35541;DHT22;21650;48.840;9.162;2022-07-17T02:36:31;16.60;93.50
35541;DHT22;21650;48.840;9.162;2022-07-17T02:38:57;16.60;94.80
35541;DHT22;21650;48.840;9.162;2022-07-17T02:41:23;16.70;94.10
35541;DHT22;21650;48.840;9.162;2022-07-17T02:43:48;16.60;94.40
35541;DHT22;21650;48.840;9.162;2022-07-17T02:46:14;16.60;94.30
35541;DHT22;21650;48.840;9.162;2022-07-17T02:48:41;16.70;94.10
35541;DHT22;21650;48.840;9.162;2022-07-17T02:51:06;16.70;94.10
35541;DHT22;21650;48.840;9.162;2022-07-17T02:53:32;16.70;93.80
35541;DHT22;21650;48.840;9.162;2022-07-17T02:55:58;16.50;94.50
35541;DHT22;21650;48.840;9.162;2022-07-17T02:58:24;16.30;94.80
35541;DHT22;21650;48.840;9.162;2022-07-17T03:00:50;16.30;95.00
35541;DHT22;21650;48.840;9.162;2022-07-17T03:03:16;16.30;95.80
35541;DHT22;21650;48.840;9.162;2022-07-17T03:05:43;16.40;95.50
35541;DHT22;21650;48.840;9.162;2022-07-17T03:08:09;16.50;95.50
35541;DHT22;21650;48.840;9.162;2022-07-17T03:10:34;16.50;95.20
35541;DHT22;21650;48.840;9.162;2022-07-17T03:13:00;16.40;94.70
35541;DHT22;21650;48.840;9.162;2022-07-17T03:15:26;16.30;95.40
35541;DHT22;21650;48.840;9.162;2022-07-17T03:17:51;16.30;95.00
35541;DHT22;21650;48.840;9.162;2022-07-17T03:20:17;16.10;95.60
35541;DHT22;21650;48.840;9.162;2022-07-17T03:22:42;15.90;96.10
35541;DHT22;21650;48.840;9.162;2022-07-17T03:25:08;16.00;96.30
35541;DHT22;21650;48.840;9.162;2022-07-17T03:27:34;16.10;95.80
35541;DHT22;21650;48.840;9.162;2022-07-17T03:30:00;16.10;96.30
35541;DHT22;21650;48.840;9.162;2022-07-17T03:32:25;16.00;96.00
35541;DHT22;21650;48.840;9.162;2022-07-17T03:34:51;16.00;96.10
35541;DHT22;21650;48.840;9.162;2022-07-17T03:37:16;16.10;96.10
35541;DHT22;21650;48.840;9.162;2022-07-17T03:39:42;16.00;95.90
35541;DHT22;21650;48.840;9.162;2022-07-17T03:42:08;15.90;96.70
35541;DHT22;21650;48.840;9.162;2022-07-17T03:44:34;16.00;96.20
35541;DHT22;21650;48.840;9.162;2022-07-17T03:46:59;16.00;96.50
35541;DHT22;21650;48.840;9.162;2022-07-17T03:49:25;16.00;96.80
35541;DHT22;21650;48.840;9.162;2022-07-17T03:51:51;16.00;96.60
35541;DHT22;21650;48.840;9.162;2022-07-17T03:54:17;16.10;96.90
35541;DHT22;21650;48.840;9.162;2022-07-17T03:56:42;16.10;96.50
35541;DHT22;21650;48.840;9.162;2022-07-17T03:59:08;16.10;96.80
35541;DHT22;21650;48.840;9.162;2022-07-17T04:01:34;16.10;96.70
35541;DHT22;21650;48.840;9.162;2022-07-17T04:03:59;16.10;96.60
35541;DHT22;21650;48.840;9.162;2022-07-17T04:06:25;16.10;96.80
35541;DHT22;21650;48.840;9.162;2022-07-17T04:08:51;16.00;97.10
35541;DHT22;21650;48.840;9.162;2022-07-17T04:11:16;16.10;97.60
35541;DHT22;21650;48.840;9.162;2022-07-17T04:13:42;16.10;97.40
35541;DHT22;21650;48.840;9.162;2022-07-17T04:16:07;16.10;97.50
35541;DHT22;21650;48.840;9.162;2022-07-17T04:18:34;16.10;98.20
35541;DHT22;21650;48.840;9.162;2022-07-17T04:21:03;16.00;97.70
35541;DHT22;21650;48.840;9.162;2022-07-17T04:23:29;15.90;97.90
35541;DHT22;21650;48.840;9.162;2022-07-17T04:25:55;15.90;98.00
35541;DHT22;21650;48.840;9.162;2022-07-17T04:28:21;16.00;98.10
35541;DHT22;21650;48.840;9.162;2022-07-17T04:30:47;16.10;98.40
35541;DHT22;21650;48.840;9.162;2022-07-17T04:33:13;16.10;98.40
35541;DHT22;21650;48.840;9.162;2022-07-17T04:35:40;16.10;98.30
35541;DHT22;21650;48.840;9.162;2022-07-17T04:38:06;16.10;98.50
35541;DHT22;21650;48.840;9.162;2022-07-17T04:40:33;16.20;98.60
35541;DHT22;21650;48.840;9.162;2022-07-17T04:42:59;16.20;98.70
35541;DHT22;21650;48.840;9.162;2022-07-17T04:45:25;16.10;98.60
35541;DHT22;21650;48.840;9.162;2022-07-17T04:47:50;16.00;98.00
35541;DHT22;21650;48.840;9.162;2022-07-17T04:50:16;16.00;98.40
35541;DHT22;21650;48.840;9.162;2022-07-17T04:52:42;15.80;98.40
35541;DHT22;21650;48.840;9.162;2022-07-17T04:55:08;15.80;98.70
35541;DHT22;21650;48.840;9.162;2022-07-17T04:57:33;15.90;99.50
35541;DHT22;21650;48.840;9.162;2022-07-17T04:59:59;15.90;99.50
35541;DHT22;21650;48.840;9.162;2022-07-17T05:02:25;16.10;99.90
35541;DHT22;21650;48.840;9.162;2022-07-17T05:04:50;16.20;99.90
35541;DHT22;21650;48.840;9.162;2022-07-17T05:07:16;16.40;99.70
35541;DHT22;21650;48.840;9.162;2022-07-17T05:09:42;16.50;99.10
35541;DHT22;21650;48.840;9.162;2022-07-17T05:12:08;16.60;99.80
35541;DHT22;21650;48.840;9.162;2022-07-17T05:14:34;16.70;99.80
35541;DHT22;21650;48.840;9.162;2022-07-17T05:17:00;16.80;99.40
35541;DHT22;21650;48.840;9.162;2022-07-17T05:19:25;16.90;98.70
35541;DHT22;21650;48.840;9.162;2022-07-17T05:21:51;17.00;98.60
35541;DHT22;21650;48.840;9.162;2022-07-17T05:24:16;17.10;98.90
35541;DHT22;21650;48.840;9.162;2022-07-17T05:26:42;17.20;98.20
35541;DHT22;21650;48.840;9.162;2022-07-17T05:29:08;17.20;97.80
35541;DHT22;21650;48.840;9.162;2022-07-17T05:31:33;17.30;96.60
35541;DHT22;21650;48.840;9.162;2022-07-17T05:33:59;17.10;96.20
35541;DHT22;21650;48.840;9.162;2022-07-17T05:36:25;17.10;96.90
35541;DHT22;21650;48.840;9.162;2022-07-17T05:38:50;17.30;97.80
35541;DHT22;21650;48.840;9.162;2022-07-17T05:41:16;17.50;97.10
35541;DHT22;21650;48.840;9.162;2022-07-17T05:43:42;17.50;96.20
35541;DHT22;21650;48.840;9.162;2022-07-17T05:46:07;17.50;96.30
35541;DHT22;21650;48.840;9.162;2022-07-17T05:48:33;17.30;96.20
35541;DHT22;21650;48.840;9.162;2022-07-17T05:50:59;17.50;96.80
35541;DHT22;21650;48.840;9.162;2022-07-17T05:53:24;17.70;96.40
35541;DHT22;21650;48.840;9.162;2022-07-17T05:55:50;17.80;95.90
35541;DHT22;21650;48.840;9.162;2022-07-17T05:58:16;17.60;95.80
35541;DHT22;21650;48.840;9.162;2022-07-17T06:00:41;17.70;96.30
35541;DHT22;21650;48.840;9.162;2022-07-17T06:03:07;17.80;95.70
35541;DHT22;21650;48.840;9.162;2022-07-17T06:05:33;17.90;95.10
35541;DHT22;21650;48.840;9.162;2022-07-17T06:07:59;18.00;94.10
35541;DHT22;21650;48.840;9.162;2022-07-17T06:10:26;18.00;95.00
35541;DHT22;21650;48.840;9.162;2022-07-17T06:12:52;17.90;94.70
35541;DHT22;21650;48.840;9.162;2022-07-17T06:15:19;17.80;95.30
35541;DHT22;21650;48.840;9.162;2022-07-17T06:17:44;17.90;94.90
35541;DHT22;21650;48.840;9.162;2022-07-17T06:20:11;17.80;95.00
35541;DHT22;21650;48.840;9.162;2022-07-17T06:22:37;17.80;96.00
35541;DHT22;21650;48.840;9.162;2022-07-17T06:25:03;18.10;94.40
35541;DHT22;21650;48.840;9.162;2022-07-17T06:27:29;18.30;93.20
35541;DHT22;21650;48.840;9.162;2022-07-17T06:29:54;18.30;93.70
35541;DHT22;21650;48.840;9.162;2022-07-17T06:32:20;18.40;92.10
35541;DHT22;21650;48.840;9.162;2022-07-17T06:34:45;18.50;92.10
35541;DHT22;21650;48.840;9.162;2022-07-17T06:37:11;18.60;92.10
35541;DHT22;21650;48.840;9.162;2022-07-17T06:39:37;18.70;92.30
35541;DHT22;21650;48.840;9.162;2022-07-17T06:42:02;18.90;91.70
35541;DHT22;21650;48.840;9.162;2022-07-17T06:44:28;19.00;90.30
35541;DHT22;21650;48.840;9.162;2022-07-17T06:46:54;19.10;90.30
35541;DHT22;21650;48.840;9.162;2022-07-17T06:49:19;18.90;90.50
35541;DHT22;21650;48.840;9.162;2022-07-17T06:51:45;18.80;90.70
35541;DHT22;21650;48.840;9.162;2022-07-17T06:54:15;18.80;90.80
35541;DHT22;21650;48.840;9.162;2022-07-17T06:56:41;19.00;90.70
35541;DHT22;21650;48.840;9.162;2022-07-17T06:59:07;19.10;90.10
35541;DHT22;21650;48.840;9.162;2022-07-17T07:01:34;19.10;90.90
35541;DHT22;21650;48.840;9.162;2022-07-17T07:04:00;19.30;89.20
35541;DHT22;21650;48.840;9.162;2022-07-17T07:06:25;19.20;89.40
35541;DHT22;21650;48.840;9.162;2022-07-17T07:08:51;19.40;89.80
35541;DHT22;21650;48.840;9.162;2022-07-17T07:13:46;19.70;89.60
35541;DHT22;21650;48.840;9.162;2022-07-17T07:16:11;19.60;86.80
35541;DHT22;21650;48.840;9.162;2022-07-17T07:18:37;19.50;85.70
35541;DHT22;21650;48.840;9.162;2022-07-17T07:21:03;19.50;87.70
35541;DHT22;21650;48.840;9.162;2022-07-17T07:23:28;19.70;87.50
35541;DHT22;21650;48.840;9.162;2022-07-17T07:25:54;19.70;86.40
35541;DHT22;21650;48.840;9.162;2022-07-17T07:28:20;19.60;84.00
35541;DHT22;21650;48.840;9.162;2022-07-17T07:30:46;19.80;84.20
35541;DHT22;21650;48.840;9.162;2022-07-17T07:33:11;19.70;84.20
35541;DHT22;21650;48.840;9.162;2022-07-17T07:35:37;19.90;84.70
35541;DHT22;21650;48.840;9.162;2022-07-17T07:38:03;20.00;82.40
35541;DHT22;21650;48.840;9.162;2022-07-17T07:40:29;19.90;83.10
35541;DHT22;21650;48.840;9.162;2022-07-17T07:42:56;20.00;83.40
35541;DHT22;21650;48.840;9.162;2022-07-17T07:45:21;20.20;83.00
35541;DHT22;21650;48.840;9.162;2022-07-17T07:47:48;20.20;83.70
35541;DHT22;21650;48.840;9.162;2022-07-17T07:50:16;20.50;82.10
35541;DHT22;21650;48.840;9.162;2022-07-17T07:52:42;20.60;82.60
35541;DHT22;21650;48.840;9.162;2022-07-17T07:55:09;20.90;83.30
35541;DHT22;21650;48.840;9.162;2022-07-17T07:57:35;20.90;82.60
35541;DHT22;21650;48.840;9.162;2022-07-17T08:00:03;20.90;80.70
35541;DHT22;21650;48.840;9.162;2022-07-17T08:02:29;20.80;79.00
35541;DHT22;21650;48.840;9.162;2022-07-17T08:04:54;20.80;79.30
35541;DHT22;21650;48.840;9.162;2022-07-17T08:07:21;21.00;79.90
35541;DHT22;21650;48.840;9.162;2022-07-17T08:09:46;21.10;80.00
35541;DHT22;21650;48.840;9.162;2022-07-17T08:12:13;21.10;79.20
35541;DHT22;21650;48.840;9.162;2022-07-17T08:14:39;21.20;80.70
35541;DHT22;21650;48.840;9.162;2022-07-17T08:17:05;21.50;78.90
35541;DHT22;21650;48.840;9.162;2022-07-17T08:19:30;21.50;78.40
35541;DHT22;21650;48.840;9.162;2022-07-17T08:21:56;21.30;78.70
35541;DHT22;21650;48.840;9.162;2022-07-17T08:24:22;21.50;76.90
35541;DHT22;21650;48.840;9.162;2022-07-17T08:26:47;21.70;76.90
35541;DHT22;21650;48.840;9.162;2022-07-17T08:29:13;22.10;77.00
35541;DHT22;21650;48.840;9.162;2022-07-17T08:31:41;22.50;73.90
35541;DHT22;21650;48.840;9.162;2022-07-17T08:34:07;22.90;73.60
35541;DHT22;21650;48.840;9.162;2022-07-17T08:36:32;23.30;77.00
35541;DHT22;21650;48.840;9.162;2022-07-17T08:38:58;23.80;75.70
35541;DHT22;21650;48.840;9.162;2022-07-17T08:41:24;24.30;74.90
35541;DHT22;21650;48.840;9.162;2022-07-17T08:43:50;24.50;70.60
35541;DHT22;21650;48.840;9.162;2022-07-17T08:46:17;24.60;71.90
35541;DHT22;21650;48.840;9.162;2022-07-17T08:48:45;25.10;76.20
35541;DHT22;21650;48.840;9.162;2022-07-17T08:51:12;25.40;74.60
35541;DHT22;21650;48.840;9.162;2022-07-17T08:53:40;25.80;71.80
35541;DHT22;21650;48.840;9.162;2022-07-17T08:56:07;26.20;69.10
35541;DHT22;21650;48.840;9.162;2022-07-17T08:58:33;26.20;70.90
35541;DHT22;21650;48.840;9.162;2022-07-17T09:00:59;26.00;63.60
35541;DHT22;21650;48.840;9.162;2022-07-17T09:03:25;25.70;67.80
35541;DHT22;21650;48.840;9.162;2022-07-17T09:05:51;26.20;67.50
35541;DHT22;21650;48.840;9.162;2022-07-17T09:08:23;26.00;66.20
35541;DHT22;21650;48.840;9.162;2022-07-17T09:10:51;25.90;69.00
35541;DHT22;21650;48.840;9.162;2022-07-17T09:13:28;26.00;66.00
35541;DHT22;21650;48.840;9.162;2022-07-17T09:16:06;26.30;64.60
35541;DHT22;21650;48.840;9.162;2022-07-17T09:18:43;26.30;67.00
35541;DHT22;21650;48.840;9.162;2022-07-17T09:21:17;26.70;62.50
35541;DHT22;21650;48.840;9.162;2022-07-17T09:23:43;26.60;62.00
35541;DHT22;21650;48.840;9.162;2022-07-17T09:26:09;26.80;64.20
35541;DHT22;21650;48.840;9.162;2022-07-17T09:28:44;26.70;63.40
35541;DHT22;21650;48.840;9.162;2022-07-17T09:31:10;26.90;61.90
35541;DHT22;21650;48.840;9.162;2022-07-17T09:33:36;26.70;65.60
35541;DHT22;21650;48.840;9.162;2022-07-17T09:36:11;27.00;62.70
35541;DHT22;21650;48.840;9.162;2022-07-17T09:38:41;27.10;67.10
35541;DHT22;21650;48.840;9.162;2022-07-17T09:46:08;27.10;61.40
35541;DHT22;21650;48.840;9.162;2022-07-17T09:48:35;27.40;60.00
35541;DHT22;21650;48.840;9.162;2022-07-17T09:51:06;26.90;58.40
35541;DHT22;21650;48.840;9.162;2022-07-17T09:53:36;27.00;59.40
35541;DHT22;21650;48.840;9.162;2022-07-17T09:56:03;27.30;58.60
35541;DHT22;21650;48.840;9.162;2022-07-17T09:58:32;26.90;53.00
35541;DHT22;21650;48.840;9.162;2022-07-17T10:00:59;26.80;55.70
35541;DHT22;21650;48.840;9.162;2022-07-17T10:03:25;26.70;54.70
35541;DHT22;21650;48.840;9.162;2022-07-17T10:05:51;26.90;60.20
35541;DHT22;21650;48.840;9.162;2022-07-17T10:08:17;27.20;59.00
35541;DHT22;21650;48.840;9.162;2022-07-17T10:10:43;27.80;61.40
35541;DHT22;21650;48.840;9.162;2022-07-17T10:13:09;27.50;54.20
35541;DHT22;21650;48.840;9.162;2022-07-17T10:15:35;27.50;57.90
35541;DHT22;21650;48.840;9.162;2022-07-17T10:18:07;28.00;53.30
35541;DHT22;21650;48.840;9.162;2022-07-17T10:20:33;27.80;54.60
35541;DHT22;21650;48.840;9.162;2022-07-17T10:22:59;27.90;54.40
35541;DHT22;21650;48.840;9.162;2022-07-17T10:25:25;28.10;55.40
35541;DHT22;21650;48.840;9.162;2022-07-17T10:27:55;27.70;55.40
35541;DHT22;21650;48.840;9.162;2022-07-17T10:30:27;27.80;55.90
35541;DHT22;21650;48.840;9.162;2022-07-17T10:33:00;27.90;56.30
35541;DHT22;21650;48.840;9.162;2022-07-17T10:35:27;28.20;54.50
35541;DHT22;21650;48.840;9.162;2022-07-17T10:37:56;27.90;50.70
35541;DHT22;21650;48.840;9.162;2022-07-17T10:40:24;27.60;50.90
35541;DHT22;21650;48.840;9.162;2022-07-17T10:47:56;27.30;51.30
35541;DHT22;21650;48.840;9.162;2022-07-17T10:50:37;28.00;52.80
35541;DHT22;21650;48.840;9.162;2022-07-17T10:53:23;27.90;48.70
35541;DHT22;21650;48.840;9.162;2022-07-17T10:55:53;28.00;49.10
35541;DHT22;21650;48.840;9.162;2022-07-17T10:58:25;27.80;48.70
35541;DHT22;21650;48.840;9.162;2022-07-17T11:01:03;27.40;47.10
35541;DHT22;21650;48.840;9.162;2022-07-17T11:03:31;27.80;51.70
35541;DHT22;21650;48.840;9.162;2022-07-17T11:06:29;27.70;50.10
35541;DHT22;21650;48.840;9.162;2022-07-17T11:08:58;28.00;53.80
35541;DHT22;21650;48.840;9.162;2022-07-17T11:11:38;28.00;50.70
35541;DHT22;21650;48.840;9.162;2022-07-17T11:14:19;28.40;47.20
35541;DHT22;21650;48.840;9.162;2022-07-17T11:16:50;27.60;49.60
35541;DHT22;21650;48.840;9.162;2022-07-17T11:21:50;27.50;48.20
35541;DHT22;21650;48.840;9.162;2022-07-17T11:24:17;28.00;46.40
35541;DHT22;21650;48.840;9.162;2022-07-17T11:26:43;27.90;47.90
35541;DHT22;21650;48.840;9.162;2022-07-17T11:29:10;28.50;49.30
35541;DHT22;21650;48.840;9.162;2022-07-17T11:31:36;28.80;47.10
35541;DHT22;21650;48.840;9.162;2022-07-17T11:34:05;29.00;49.00
35541;DHT22;21650;48.840;9.162;2022-07-17T11:36:38;29.30;48.40
35541;DHT22;21650;48.840;9.162;2022-07-17T11:39:09;29.60;47.70
35541;DHT22;21650;48.840;9.162;2022-07-17T11:41:48;29.70;47.30
35541;DHT22;21650;48.840;9.162;2022-07-17T11:44:18;29.90;46.20
35541;DHT22;21650;48.840;9.162;2022-07-17T11:46:47;29.50;45.80
35541;DHT22;21650;48.840;9.162;2022-07-17T11:49:33;29.30;45.80
35541;DHT22;21650;48.840;9.162;2022-07-17T11:52:11;29.50;47.50
35541;DHT22;21650;48.840;9.162;2022-07-17T11:54:51;29.30;46.30
35541;DHT22;21650;48.840;9.162;2022-07-17T11:57:18;29.90;47.40
35541;DHT22;21650;48.840;9.162;2022-07-17T11:59:44;30.00;47.70
35541;DHT22;21650;48.840;9.162;2022-07-17T12:02:15;30.00;46.10
35541;DHT22;21650;48.840;9.162;2022-07-17T12:04:53;29.90;45.50
35541;DHT22;21650;48.840;9.162;2022-07-17T12:07:23;29.50;47.30
35541;DHT22;21650;48.840;9.162;2022-07-17T12:09:49;29.60;44.30
35541;DHT22;21650;48.840;9.162;2022-07-17T12:12:26;29.60;48.30
35541;DHT22;21650;48.840;9.162;2022-07-17T12:14:57;29.80;48.00
35541;DHT22;21650;48.840;9.162;2022-07-17T12:17:23;30.30;47.50
35541;DHT22;21650;48.840;9.162;2022-07-17T12:19:51;29.90;46.80
35541;DHT22;21650;48.840;9.162;2022-07-17T12:22:17;29.90;45.70
35541;DHT22;21650;48.840;9.162;2022-07-17T12:24:44;30.00;46.80
35541;DHT22;21650;48.840;9.162;2022-07-17T12:27:12;30.40;46.60
35541;DHT22;21650;48.840;9.162;2022-07-17T12:29:40;30.50;44.90
35541;DHT22;21650;48.840;9.162;2022-07-17T12:32:11;30.30;45.90
35541;DHT22;21650;48.840;9.162;2022-07-17T12:34:45;29.90;46.70
35541;DHT22;21650;48.840;9.162;2022-07-17T12:37:12;29.70;46.30
35541;DHT22;21650;48.840;9.162;2022-07-17T12:39:38;29.70;47.10
35541;DHT22;21650;48.840;9.162;2022-07-17T12:42:04;29.60;47.40
35541;DHT22;21650;48.840;9.162;2022-07-17T12:44:30;29.60;45.30
35541;DHT22;21650;48.840;9.162;2022-07-17T12:46:56;29.80;48.20
35541;DHT22;21650;48.840;9.162;2022-07-17T12:49:22;30.20;47.20
35541;DHT22;21650;48.840;9.162;2022-07-17T12:51:49;30.40;45.00
35541;DHT22;21650;48.840;9.162;2022-07-17T12:54:15;30.60;46.20
35541;DHT22;21650;48.840;9.162;2022-07-17T12:56:40;30.30;46.00
35541;DHT22;21650;48.840;9.162;2022-07-17T12:59:06;30.60;48.20
35541;DHT22;21650;48.840;9.162;2022-07-17T13:01:33;30.70;46.90
35541;DHT22;21650;48.840;9.162;2022-07-17T13:03:59;30.30;45.50
35541;DHT22;21650;48.840;9.162;2022-07-17T13:06:25;30.50;46.50
35541;DHT22;21650;48.840;9.162;2022-07-17T13:08:51;30.90;46.80
35541;DHT22;21650;48.840;9.162;2022-07-17T13:11:17;31.10;46.50
35541;DHT22;21650;48.840;9.162;2022-07-17T13:13:43;31.10;44.30
35541;DHT22;21650;48.840;9.162;2022-07-17T13:16:08;31.00;44.00
35541;DHT22;21650;48.840;9.162;2022-07-17T13:18:34;31.10;45.10
35541;DHT22;21650;48.840;9.162;2022-07-17T13:21:00;30.80;43.20
35541;DHT22;21650;48.840;9.162;2022-07-17T13:23:25;30.90;45.00
35541;DHT22;21650;48.840;9.162;2022-07-17T13:25:51;29.70;43.60
35541;DHT22;21650;48.840;9.162;2022-07-17T13:28:16;30.00;45.70
35541;DHT22;21650;48.840;9.162;2022-07-17T13:30:42;30.50;46.40
35541;DHT22;21650;48.840;9.162;2022-07-17T13:33:07;30.50;43.80
35541;DHT22;21650;48.840;9.162;2022-07-17T13:35:33;30.40;44.90
35541;DHT22;21650;48.840;9.162;2022-07-17T13:37:59;30.10;43.40
35541;DHT22;21650;48.840;9.162;2022-07-17T13:40:27;30.00;43.10
35541;DHT22;21650;48.840;9.162;2022-07-17T13:42:54;30.20;42.80
35541;DHT22;21650;48.840;9.162;2022-07-17T13:45:20;29.80;42.30
35541;DHT22;21650;48.840;9.162;2022-07-17T13:47:46;29.80;42.60
35541;DHT22;21650;48.840;9.162;2022-07-17T13:50:11;29.90;43.20
35541;DHT22;21650;48.840;9.162;2022-07-17T13:52:37;30.80;44.00
35541;DHT22;21650;48.840;9.162;2022-07-17T13:55:06;30.30;41.00
35541;DHT22;21650;48.840;9.162;2022-07-17T13:57:32;30.30;40.90
35541;DHT22;21650;48.840;9.162;2022-07-17T13:59:58;30.70;42.00
35541;DHT22;21650;48.840;9.162;2022-07-17T14:02:24;30.40;41.30
35541;DHT22;21650;48.840;9.162;2022-07-17T14:04:50;30.80;42.30
35541;DHT22;21650;48.840;9.162;2022-07-17T14:07:15;29.50;43.50
35541;DHT22;21650;48.840;9.162;2022-07-17T14:09:41;30.10;43.40
35541;DHT22;21650;48.840;9.162;2022-07-17T14:12:07;30.80;43.00
35541;DHT22;21650;48.840;9.162;2022-07-17T14:14:33;31.20;43.60
35541;DHT22;21650;48.840;9.162;2022-07-17T14:16:59;31.50;41.50
35541;DHT22;21650;48.840;9.162;2022-07-17T14:19:25;31.50;40.00
35541;DHT22;21650;48.840;9.162;2022-07-17T14:21:51;31.10;41.40
35541;DHT22;21650;48.840;9.162;2022-07-17T14:24:16;30.90;39.80
35541;DHT22;21650;48.840;9.162;2022-07-17T14:26:42;31.10;40.60
35541;DHT22;21650;48.840;9.162;2022-07-17T14:29:08;31.30;42.60
35541;DHT22;21650;48.840;9.162;2022-07-17T14:31:34;31.20;40.40
35541;DHT22;21650;48.840;9.162;2022-07-17T14:34:00;31.10;40.50
35541;DHT22;21650;48.840;9.162;2022-07-17T14:36:25;31.40;41.60
35541;DHT22;21650;48.840;9.162;2022-07-17T14:38:51;31.40;39.80
35541;DHT22;21650;48.840;9.162;2022-07-17T14:41:17;31.30;40.40
35541;DHT22;21650;48.840;9.162;2022-07-17T14:43:43;30.80;41.90
35541;DHT22;21650;48.840;9.162;2022-07-17T14:46:08;30.40;42.70
35541;DHT22;21650;48.840;9.162;2022-07-17T14:48:34;30.30;42.90
35541;DHT22;21650;48.840;9.162;2022-07-17T14:50:59;30.10;42.20
35541;DHT22;21650;48.840;9.162;2022-07-17T14:53:25;31.20;43.80
35541;DHT22;21650;48.840;9.162;2022-07-17T14:55:51;31.40;43.60
35541;DHT22;21650;48.840;9.162;2022-07-17T14:58:16;31.60;40.90
35541;DHT22;21650;48.840;9.162;2022-07-17T15:00:42;31.40;40.40
35541;DHT22;21650;48.840;9.162;2022-07-17T15:03:07;31.40;41.50
35541;DHT22;21650;48.840;9.162;2022-07-17T15:05:34;31.30;41.60
35541;DHT22;21650;48.840;9.162;2022-07-17T15:07:59;31.20;40.90
35541;DHT22;21650;48.840;9.162;2022-07-17T15:10:25;31.20;42.90
35541;DHT22;21650;48.840;9.162;2022-07-17T15:12:50;31.00;41.00
35541;DHT22;21650;48.840;9.162;2022-07-17T15:15:16;30.60;42.30
35541;DHT22;21650;48.840;9.162;2022-07-17T15:17:41;30.80;42.50
35541;DHT22;21650;48.840;9.162;2022-07-17T15:20:07;30.90;42.60
35541;DHT22;21650;48.840;9.162;2022-07-17T15:22:33;31.30;41.30
35541;DHT22;21650;48.840;9.162;2022-07-17T15:24:59;31.90;41.50
35541;DHT22;21650;48.840;9.162;2022-07-17T15:27:25;31.90;40.50
35541;DHT22;21650;48.840;9.162;2022-07-17T15:29:51;32.10;41.10
35541;DHT22;21650;48.840;9.162;2022-07-17T15:32:17;32.00;39.50
35541;DHT22;21650;48.840;9.162;2022-07-17T15:34:42;31.40;39.70
35541;DHT22;21650;48.840;9.162;2022-07-17T15:37:08;31.50;40.70
35541;DHT22;21650;48.840;9.162;2022-07-17T15:39:34;31.20;39.90
35541;DHT22;21650;48.840;9.162;2022-07-17T15:42:00;31.20;39.70